createdAt,value
2018-04-29T00:00:00.916Z,7.65
2018-04-29T00:02:28.368Z,8.15
2018-04-29T00:04:55.243Z,7.65
2018-04-29T00:07:22.870Z,7.20
2018-04-29T00:09:49.490Z,8.10
2018-04-29T00:12:16.160Z,8.38
2018-04-29T00:14:42.796Z,7.80
2018-04-29T00:17:09.428Z,8.82
2018-04-29T00:19:36.109Z,8.77
2018-04-29T00:22:02.747Z,8.38
2018-04-29T00:24:29.373Z,7.68
2018-04-29T00:27:00.324Z,9.05
2018-04-29T00:29:28.626Z,8.50
2018-04-29T00:31:55.241Z,8.88
2018-04-29T00:34:21.958Z,7.78
2018-04-29T00:36:48.705Z,7.55
2018-04-29T00:39:22.273Z,8.85
2018-04-29T00:41:49.986Z,8.00
2018-04-29T00:44:16.820Z,8.35
2018-04-29T00:46:43.965Z,8.10
2018-04-29T00:49:10.602Z,8.05
2018-04-29T00:51:43.326Z,7.28
2018-04-29T00:54:11.189Z,8.27
2018-04-29T00:56:42.450Z,8.02
2018-04-29T00:59:09.148Z,8.15
2018-04-29T01:01:36.653Z,7.65
2018-04-29T01:04:03.333Z,7.68
2018-04-29T01:06:30.014Z,8.07
2018-04-29T01:08:56.752Z,8.13
2018-04-29T01:11:23.442Z,7.70
2018-04-29T01:13:50.064Z,8.05
2018-04-29T01:16:16.690Z,7.85
2018-04-29T01:18:43.352Z,7.65
2018-04-29T01:21:10.011Z,8.85
2018-04-29T01:23:36.790Z,8.38
2018-04-29T01:26:07.661Z,9.07
2018-04-29T01:28:34.301Z,7.82
2018-04-29T01:31:00.941Z,8.77
2018-04-29T01:33:27.750Z,7.90
2018-04-29T01:35:54.425Z,7.53
2018-04-29T01:38:21.113Z,6.97
2018-04-29T01:40:47.773Z,8.00
2018-04-29T01:43:15.446Z,7.75
2018-04-29T01:45:44.921Z,7.87
2018-04-29T01:48:16.674Z,8.13
2018-04-29T01:50:43.390Z,9.10
2018-04-29T01:53:10.124Z,7.57
2018-04-29T01:55:36.768Z,8.02
2018-04-29T01:58:04.370Z,8.05
2018-04-29T02:00:31.072Z,7.47
2018-04-29T02:03:01.597Z,9.05
2018-04-29T02:05:28.234Z,8.55
2018-04-29T02:07:58.691Z,8.27
2018-04-29T02:10:25.962Z,8.90
2018-04-29T02:12:52.678Z,8.68
2018-04-29T02:15:19.446Z,7.60
2018-04-29T02:17:46.941Z,8.50
2018-04-29T02:20:13.686Z,7.55
2018-04-29T02:22:46.108Z,8.27
2018-04-29T02:25:12.790Z,8.05
2018-04-29T02:27:43.047Z,8.25
2018-04-29T02:30:10.575Z,9.38
2018-04-29T02:32:37.236Z,7.55
2018-04-29T02:35:03.849Z,9.07
2018-04-29T02:37:31.098Z,9.38
2018-04-29T02:39:57.751Z,8.40
2018-04-29T02:42:24.479Z,7.75
2018-04-29T02:44:55.586Z,8.60
2018-04-29T02:47:23.077Z,9.20
2018-04-29T02:49:49.723Z,9.05
2018-04-29T02:52:16.342Z,9.43
2018-04-29T02:54:48.908Z,10.07
2018-04-29T02:57:15.528Z,9.13
2018-04-29T02:59:45.803Z,9.43
2018-04-29T03:02:13.039Z,8.75
2018-04-29T03:04:40.269Z,8.73
2018-04-29T03:07:06.963Z,8.98
2018-04-29T03:09:33.562Z,8.60
2018-04-29T03:12:00.219Z,8.65
2018-04-29T03:14:30.971Z,9.85
2018-04-29T03:16:57.614Z,8.65
2018-04-29T03:19:24.295Z,9.38
2018-04-29T03:21:51.033Z,9.27
2018-04-29T03:24:17.648Z,10.23
2018-04-29T03:26:44.936Z,8.98
2018-04-29T03:29:11.578Z,11.30
2018-04-29T03:31:39.255Z,9.52
2018-04-29T03:34:05.891Z,9.02
2018-04-29T03:36:33.142Z,9.27
2018-04-29T03:39:09.301Z,10.02
2018-04-29T03:41:35.962Z,9.10
2018-04-29T03:44:02.573Z,8.50
2018-04-29T03:46:29.246Z,10.10
2018-04-29T03:49:00.081Z,8.63
2018-04-29T03:51:26.730Z,9.02
2018-04-29T03:53:53.370Z,9.95
2018-04-29T03:56:24.226Z,8.43
2018-04-29T03:58:56.919Z,10.18
2018-04-29T04:01:29.404Z,10.80
2018-04-29T04:03:56.997Z,10.68
2018-04-29T04:06:23.630Z,10.10
2018-04-29T04:08:50.257Z,10.43
2018-04-29T04:11:16.890Z,10.70
2018-04-29T04:13:43.542Z,10.75
2018-04-29T04:16:10.196Z,10.52
2018-04-29T04:18:37.216Z,10.13
2018-04-29T04:21:12.205Z,10.18
2018-04-29T04:23:38.950Z,12.07
2018-04-29T04:26:06.022Z,9.93
2018-04-29T04:28:33.495Z,9.85
2018-04-29T04:31:03.974Z,10.75
2018-04-29T04:33:30.894Z,9.70
2018-04-29T04:35:58.194Z,9.80
2018-04-29T04:38:24.888Z,11.05
2018-04-29T04:40:52.115Z,11.10
2018-04-29T04:43:18.750Z,12.05
2018-04-29T04:45:45.406Z,14.20
2018-04-29T04:48:12.102Z,13.20
2018-04-29T04:50:43.080Z,12.20
2018-04-29T04:53:10.805Z,11.25
2018-04-29T04:55:37.587Z,11.15
2018-04-29T04:58:06.298Z,10.93
2018-04-29T05:00:39.015Z,11.10
2018-04-29T05:03:06.283Z,10.35
2018-04-29T05:05:34.352Z,10.77
2018-04-29T05:08:01.103Z,10.48
2018-04-29T05:10:27.758Z,10.80
2018-04-29T05:12:54.960Z,9.80
2018-04-29T05:15:21.637Z,10.45
2018-04-29T05:17:48.387Z,11.15
2018-04-29T05:20:15.173Z,10.77
2018-04-29T05:22:42.233Z,10.57
2018-04-29T05:25:09.250Z,12.88
2018-04-29T05:27:35.897Z,11.77
2018-04-29T05:30:03.355Z,11.60
2018-04-29T05:32:31.348Z,11.50
2018-04-29T05:34:57.982Z,12.50
2018-04-29T05:37:24.657Z,11.70
2018-04-29T05:39:51.281Z,11.23
2018-04-29T05:42:17.939Z,12.02
2018-04-29T05:44:44.558Z,12.07
2018-04-29T05:47:11.217Z,11.60
2018-04-29T05:49:37.846Z,11.63
2018-04-29T05:52:04.486Z,12.57
2018-04-29T05:54:31.974Z,11.70
2018-04-29T05:56:58.610Z,11.82
2018-04-29T05:59:25.289Z,11.90
2018-04-29T06:01:51.894Z,12.20
2018-04-29T06:04:18.529Z,12.20
2018-04-29T06:06:45.269Z,12.95
2018-04-29T06:09:11.892Z,13.00
2018-04-29T06:11:38.534Z,12.32
2018-04-29T06:14:05.278Z,12.30
2018-04-29T06:16:31.814Z,11.57
2018-04-29T06:18:58.486Z,11.23
2018-04-29T06:21:25.143Z,12.15
2018-04-29T06:23:51.789Z,11.20
2018-04-29T06:26:18.492Z,12.27
2018-04-29T06:28:45.218Z,10.20
2018-04-29T06:31:11.825Z,10.85
2018-04-29T06:33:38.499Z,10.60
2018-04-29T06:36:05.206Z,12.77
2018-04-29T06:38:31.851Z,10.00
2018-04-29T06:40:58.555Z,9.90
2018-04-29T06:43:25.166Z,10.45
2018-04-29T06:45:52.231Z,8.43
2018-04-29T06:48:18.887Z,10.35
2018-04-29T06:50:45.549Z,10.40
2018-04-29T06:53:12.299Z,9.52
2018-04-29T06:55:38.927Z,10.17
2018-04-29T06:58:05.535Z,15.80
2018-04-29T07:00:32.156Z,15.97
2018-04-29T07:02:58.815Z,14.60
2018-04-29T07:05:25.446Z,14.10
2018-04-29T07:07:52.088Z,13.50
2018-04-29T07:10:18.712Z,35.93
2018-04-29T07:12:45.337Z,10.20
2018-04-29T07:15:11.934Z,9.07
2018-04-29T07:17:38.567Z,8.50
2018-04-29T07:20:05.181Z,7.70
2018-04-29T07:22:31.798Z,7.43
2018-04-29T07:24:58.422Z,7.80
2018-04-29T07:27:26.968Z,7.90
2018-04-29T07:29:54.171Z,7.03
2018-04-29T07:32:20.810Z,6.70
2018-04-29T07:34:47.427Z,7.23
2018-04-29T07:37:14.718Z,6.60
2018-04-29T07:39:41.354Z,6.47
2018-04-29T07:42:07.981Z,6.20
2018-04-29T07:44:34.608Z,6.53
2018-04-29T07:47:01.274Z,5.40
2018-04-29T07:49:27.887Z,5.67
2018-04-29T07:51:54.516Z,5.40
2018-04-29T07:54:21.165Z,6.18
2018-04-29T07:56:47.791Z,5.80
2018-04-29T07:59:14.417Z,4.87
2018-04-29T08:01:41.071Z,5.75
2018-04-29T08:04:07.709Z,6.28
2018-04-29T08:06:34.317Z,5.07
2018-04-29T08:09:00.942Z,6.27
2018-04-29T08:11:27.555Z,5.17
2018-04-29T08:13:54.183Z,5.68
2018-04-29T08:16:21.539Z,4.87
2018-04-29T08:18:48.794Z,6.10
2018-04-29T08:21:15.414Z,6.00
2018-04-29T08:23:42.060Z,7.03
2018-04-29T08:26:08.681Z,6.23
2018-04-29T08:28:35.312Z,5.78
2018-04-29T08:31:01.963Z,5.93
2018-04-29T08:33:28.582Z,6.40
2018-04-29T08:35:55.233Z,5.80
2018-04-29T08:38:21.864Z,6.32
2018-04-29T08:40:48.510Z,4.82
2018-04-29T08:43:15.159Z,5.22
2018-04-29T08:45:42.765Z,5.00
2018-04-29T08:48:09.573Z,5.40
2018-04-29T08:50:36.323Z,5.07
2018-04-29T08:53:04.225Z,5.10
2018-04-29T08:55:31.193Z,5.28
2018-04-29T08:57:57.916Z,5.15
2018-04-29T09:00:24.588Z,4.90
2018-04-29T09:02:51.540Z,5.30
2018-04-29T09:05:19.377Z,5.55
2018-04-29T09:07:46.165Z,5.07
2018-04-29T09:10:13.020Z,5.43
2018-04-29T09:12:39.793Z,5.57
2018-04-29T09:15:06.766Z,5.07
2018-04-29T09:17:33.676Z,5.17
2018-04-29T09:20:01.126Z,5.77
2018-04-29T09:22:27.989Z,4.90
2018-04-29T09:24:54.660Z,4.70
2018-04-29T09:27:21.557Z,4.73
2018-04-29T09:29:48.280Z,4.70
2018-04-29T09:32:15.089Z,5.05
2018-04-29T09:34:41.776Z,4.72
2018-04-29T09:37:08.602Z,4.63
2018-04-29T09:39:35.952Z,5.00
2018-04-29T09:42:02.705Z,4.30
2018-04-29T09:44:29.515Z,4.60
2018-04-29T09:46:56.272Z,4.62
2018-04-29T09:49:23.012Z,5.50
2018-04-29T09:51:50.248Z,5.30
2018-04-29T09:54:17.014Z,5.65
2018-04-29T09:56:43.714Z,4.77
2018-04-29T09:59:11.473Z,4.43
2018-04-29T10:01:38.285Z,5.20
2018-04-29T10:04:04.958Z,4.57
2018-04-29T10:06:31.772Z,5.43
2018-04-29T10:08:58.514Z,4.80
2018-04-29T10:11:25.315Z,5.30
2018-04-29T10:13:52.090Z,6.10
2018-04-29T10:16:18.850Z,5.20
2018-04-29T10:18:45.636Z,5.17
2018-04-29T10:21:13.303Z,5.20
2018-04-29T10:23:40.084Z,6.23
2018-04-29T10:26:06.933Z,4.60
2018-04-29T10:28:33.892Z,4.80
2018-04-29T10:31:00.651Z,3.73
2018-04-29T10:33:27.355Z,5.00
2018-04-29T10:35:54.171Z,5.13
2018-04-29T10:38:20.967Z,4.63
2018-04-29T10:40:47.733Z,4.70
2018-04-29T10:43:14.545Z,4.83
2018-04-29T10:45:41.333Z,4.63
2018-04-29T10:48:08.055Z,3.50
2018-04-29T10:50:35.389Z,3.83
2018-04-29T10:53:02.125Z,3.17
2018-04-29T10:55:28.908Z,3.47
2018-04-29T10:57:55.722Z,3.07
2018-04-29T11:00:22.456Z,3.00
2018-04-29T11:02:49.215Z,3.07
2018-04-29T11:05:15.985Z,2.87
2018-04-29T11:07:42.774Z,3.13
2018-04-29T11:10:09.627Z,3.20
2018-04-29T11:12:36.336Z,2.90
2018-04-29T11:15:03.146Z,3.20
2018-04-29T11:17:29.973Z,3.50
2018-04-29T11:19:56.918Z,3.13
2018-04-29T11:22:23.803Z,2.97
2018-04-29T11:24:50.466Z,3.90
2018-04-29T11:27:17.187Z,2.90
2018-04-29T11:29:44.044Z,3.40
2018-04-29T11:32:10.824Z,3.47
2018-04-29T11:34:37.630Z,2.90
2018-04-29T11:37:04.326Z,3.87
2018-04-29T11:39:31.093Z,3.60
2018-04-29T11:41:58.729Z,3.70
2018-04-29T11:44:26.698Z,3.30
2018-04-29T11:46:53.508Z,3.40
2018-04-29T11:49:20.350Z,3.10
2018-04-29T11:51:47.075Z,3.40
2018-04-29T11:54:13.921Z,3.23
2018-04-29T11:56:40.703Z,3.33
2018-04-29T11:59:07.507Z,3.47
2018-04-29T12:01:34.159Z,4.07
2018-04-29T12:04:00.918Z,3.60
2018-04-29T12:06:27.714Z,3.77
2018-04-29T12:08:54.518Z,4.50
2018-04-29T12:11:21.311Z,3.33
2018-04-29T12:13:47.994Z,3.30
2018-04-29T12:16:14.773Z,3.40
2018-04-29T12:18:41.484Z,2.60
2018-04-29T12:21:09.084Z,3.37
2018-04-29T12:23:36.027Z,3.73
2018-04-29T12:26:02.770Z,3.60
2018-04-29T12:28:29.506Z,2.87
2018-04-29T12:30:56.243Z,3.07
2018-04-29T12:33:22.979Z,3.80
2018-04-29T12:35:49.785Z,3.40
2018-04-29T12:38:16.557Z,3.10
2018-04-29T12:40:43.360Z,3.27
2018-04-29T12:43:10.203Z,3.40
2018-04-29T12:45:36.944Z,3.40
2018-04-29T12:48:03.666Z,3.73
2018-04-29T12:50:30.417Z,3.90
2018-04-29T12:52:57.159Z,3.30
2018-04-29T12:55:24.060Z,3.30
2018-04-29T12:57:50.851Z,3.17
2018-04-29T13:00:17.515Z,3.50
2018-04-29T13:02:44.444Z,3.77
2018-04-29T13:05:11.139Z,4.60
2018-04-29T13:07:37.992Z,3.70
2018-04-29T13:10:04.730Z,3.47
2018-04-29T13:12:31.669Z,3.37
2018-04-29T13:14:58.567Z,3.80
2018-04-29T13:17:25.325Z,4.40
2018-04-29T13:19:52.104Z,4.33
2018-04-29T13:22:19.018Z,3.50
2018-04-29T13:24:45.828Z,4.30
2018-04-29T13:27:12.506Z,3.60
2018-04-29T13:29:39.412Z,3.43
2018-04-29T13:32:05.978Z,5.00
2018-04-29T13:34:32.616Z,4.93
2018-04-29T13:36:59.263Z,5.27
2018-04-29T13:39:25.984Z,5.67
2018-04-29T13:41:52.730Z,5.40
2018-04-29T13:44:19.362Z,5.00
2018-04-29T13:46:46.070Z,5.53
2018-04-29T13:49:13.364Z,4.70
2018-04-29T13:51:40.175Z,4.30
2018-04-29T13:54:06.812Z,4.60
2018-04-29T13:56:33.576Z,3.93
2018-04-29T13:59:00.216Z,4.90
2018-04-29T14:01:26.850Z,4.23
2018-04-29T14:03:53.510Z,4.20
2018-04-29T14:06:20.163Z,4.90
2018-04-29T14:08:46.766Z,4.53
2018-04-29T14:11:13.407Z,4.00
2018-04-29T14:13:40.062Z,3.77
2018-04-29T14:16:06.799Z,4.03
2018-04-29T14:18:33.329Z,3.83
2018-04-29T14:20:59.975Z,4.37
2018-04-29T14:23:26.595Z,4.00
2018-04-29T14:25:53.244Z,3.10
2018-04-29T14:28:19.861Z,3.03
2018-04-29T14:30:46.563Z,3.53
2018-04-29T14:33:13.205Z,3.53
2018-04-29T14:35:39.843Z,2.80
2018-04-29T14:38:06.541Z,3.30
2018-04-29T14:40:33.178Z,3.20
2018-04-29T14:42:59.803Z,2.90
2018-04-29T14:45:26.410Z,3.57
2018-04-29T14:47:53.103Z,3.60
2018-04-29T14:50:19.726Z,3.10
2018-04-29T14:52:46.502Z,3.60
2018-04-29T14:55:13.123Z,3.33
2018-04-29T14:57:39.780Z,3.53
2018-04-29T15:00:06.394Z,4.03
2018-04-29T15:02:33.054Z,3.40
2018-04-29T15:05:00.541Z,3.60
2018-04-29T15:07:27.176Z,3.40
2018-04-29T15:09:53.798Z,3.67
2018-04-29T15:12:20.427Z,3.40
2018-04-29T15:14:47.065Z,3.20
2018-04-29T15:17:13.675Z,3.13
2018-04-29T15:19:46.223Z,3.80
2018-04-29T15:22:12.847Z,3.47
2018-04-29T15:24:39.479Z,3.27
2018-04-29T15:27:06.105Z,2.90
2018-04-29T15:29:32.745Z,2.90
2018-04-29T15:31:59.361Z,4.00
2018-04-29T15:34:25.988Z,3.70
2018-04-29T15:36:52.980Z,3.30
2018-04-29T15:39:19.624Z,3.70
2018-04-29T15:41:46.244Z,3.53
2018-04-29T15:44:12.893Z,3.20
2018-04-29T15:46:39.502Z,4.07
2018-04-29T15:49:06.156Z,3.80
2018-04-29T15:51:32.799Z,4.20
2018-04-29T15:53:59.459Z,3.43
2018-04-29T15:56:26.166Z,3.70
2018-04-29T15:58:52.802Z,2.87
2018-04-29T16:01:19.452Z,3.63
2018-04-29T16:03:46.087Z,3.17
2018-04-29T16:06:12.739Z,3.60
2018-04-29T16:08:39.416Z,2.80
2018-04-29T16:11:06.134Z,3.20
2018-04-29T16:13:32.776Z,2.83
2018-04-29T16:15:59.568Z,3.63
2018-04-29T16:18:26.361Z,3.70
2018-04-29T16:20:53.061Z,3.13
2018-04-29T16:23:19.810Z,3.67
2018-04-29T16:25:46.618Z,3.50
2018-04-29T16:28:13.460Z,3.20
2018-04-29T16:30:40.218Z,3.37
2018-04-29T16:33:07.240Z,3.17
2018-04-29T16:35:33.986Z,3.50
2018-04-29T16:38:00.684Z,3.00
2018-04-29T16:40:27.406Z,3.60
2018-04-29T16:42:54.121Z,3.50
2018-04-29T16:45:20.954Z,3.30
2018-04-29T16:47:47.855Z,3.30
2018-04-29T16:50:14.905Z,3.70
2018-04-29T16:52:42.183Z,3.67
2018-04-29T16:55:08.875Z,3.13
2018-04-29T16:57:35.685Z,3.30
2018-04-29T17:00:02.364Z,3.30
2018-04-29T17:02:28.996Z,3.47
2018-04-29T17:04:55.631Z,3.80
2018-04-29T17:07:22.271Z,3.60
2018-04-29T17:09:49.036Z,3.47
2018-04-29T17:12:17.238Z,4.53
2018-04-29T17:14:47.217Z,4.00
2018-04-29T17:17:13.902Z,3.90
2018-04-29T17:19:40.669Z,4.30
2018-04-29T17:22:09.748Z,4.50
2018-04-29T17:24:36.417Z,3.77
2018-04-29T17:27:03.045Z,4.50
2018-04-29T17:29:29.780Z,4.57
2018-04-29T17:31:56.332Z,4.10
2018-04-29T17:34:23.003Z,3.60
2018-04-29T17:36:50.101Z,4.47
2018-04-29T17:39:16.712Z,4.20
2018-04-29T17:41:43.406Z,3.50
2018-04-29T17:44:10.071Z,4.47
2018-04-29T17:46:36.707Z,3.57
2018-04-29T17:49:03.372Z,4.03
2018-04-29T17:51:30.024Z,4.13
2018-04-29T17:53:56.660Z,4.43
2018-04-29T17:56:23.305Z,3.83
2018-04-29T17:58:49.978Z,3.27
2018-04-29T18:01:16.637Z,4.03
2018-04-29T18:03:43.839Z,4.20
2018-04-29T18:06:10.490Z,4.03
2018-04-29T18:08:37.180Z,4.23
2018-04-29T18:11:03.816Z,3.63
2018-04-29T18:13:31.403Z,4.33
2018-04-29T18:15:58.060Z,3.90
2018-04-29T18:18:24.720Z,3.97
2018-04-29T18:20:51.363Z,3.65
2018-04-29T18:23:18.544Z,4.33
2018-04-29T18:25:45.368Z,4.07
2018-04-29T18:28:12.146Z,4.22
2018-04-29T18:30:39.395Z,4.73
2018-04-29T18:33:06.291Z,3.97
2018-04-29T18:35:33.080Z,4.20
2018-04-29T18:38:00.038Z,4.18
2018-04-29T18:40:26.805Z,4.40
2018-04-29T18:42:53.606Z,4.97
2018-04-29T18:45:21.477Z,3.67
2018-04-29T18:47:48.314Z,4.17
2018-04-29T18:50:15.243Z,4.17
2018-04-29T18:52:42.105Z,4.40
2018-04-29T18:55:08.822Z,3.62
2018-04-29T18:57:35.553Z,4.25
2018-04-29T19:00:02.404Z,3.67
2018-04-29T19:02:29.251Z,4.37
2018-04-29T19:04:56.122Z,4.10
2018-04-29T19:07:22.906Z,5.00
2018-04-29T19:09:49.639Z,4.00
2018-04-29T19:12:16.476Z,4.75
2018-04-29T19:14:43.220Z,5.00
2018-04-29T19:17:09.922Z,4.75
2018-04-29T19:19:36.707Z,4.22
2018-04-29T19:22:03.582Z,5.43
2018-04-29T19:24:30.613Z,4.70
2018-04-29T19:26:57.406Z,4.25
2018-04-29T19:29:24.214Z,4.47
2018-04-29T19:31:50.910Z,5.57
2018-04-29T19:34:17.687Z,4.80
2018-04-29T19:36:44.550Z,5.10
2018-04-29T19:39:11.387Z,5.30
2018-04-29T19:41:38.188Z,5.32
2018-04-29T19:44:04.953Z,5.65
2018-04-29T19:46:31.697Z,4.82
2018-04-29T19:48:59.123Z,5.80
2018-04-29T19:51:25.907Z,5.47
2018-04-29T19:53:53.479Z,4.82
2018-04-29T19:56:20.297Z,5.87
2018-04-29T19:58:47.174Z,5.32
2018-04-29T20:01:13.974Z,4.72
2018-04-29T20:03:41.738Z,4.93
2018-04-29T20:06:08.525Z,5.50
2018-04-29T20:08:35.458Z,5.80
2018-04-29T20:11:02.146Z,4.68
2018-04-29T20:13:28.940Z,5.62
2018-04-29T20:15:55.671Z,5.18
2018-04-29T20:18:22.414Z,5.93
2018-04-29T20:20:49.003Z,5.75
2018-04-29T20:23:15.631Z,5.60
2018-04-29T20:25:42.300Z,5.35
2018-04-29T20:28:08.951Z,5.10
2018-04-29T20:30:35.618Z,5.53
2018-04-29T20:33:02.261Z,6.28
2018-04-29T20:35:28.933Z,5.12
2018-04-29T20:37:55.650Z,5.65
2018-04-29T20:40:22.322Z,5.28
2018-04-29T20:42:48.948Z,4.95
2018-04-29T20:45:15.576Z,5.68
2018-04-29T20:47:42.221Z,5.28
2018-04-29T20:50:08.853Z,5.53
2018-04-29T20:52:35.490Z,6.10
2018-04-29T20:55:02.134Z,6.35
2018-04-29T20:57:28.821Z,5.72
2018-04-29T20:59:55.448Z,5.53
2018-04-29T21:02:22.142Z,6.75
2018-04-29T21:04:48.794Z,6.10
2018-04-29T21:07:15.419Z,5.45
2018-04-29T21:09:42.063Z,5.25
2018-04-29T21:12:08.722Z,5.87
2018-04-29T21:14:35.342Z,5.70
2018-04-29T21:17:02.009Z,5.90
2018-04-29T21:19:28.638Z,5.70
2018-04-29T21:21:55.292Z,5.43
2018-04-29T21:24:21.936Z,5.22
2018-04-29T21:26:48.554Z,5.60
2018-04-29T21:29:15.205Z,6.45
2018-04-29T21:31:41.903Z,6.18
2018-04-29T21:34:08.543Z,6.57
2018-04-29T21:36:35.284Z,6.60
2018-04-29T21:39:01.930Z,5.80
2018-04-29T21:41:28.563Z,6.15
2018-04-29T21:43:55.207Z,7.05
2018-04-29T21:46:21.846Z,5.47
2018-04-29T21:48:48.498Z,6.97
2018-04-29T21:51:15.106Z,6.50
2018-04-29T21:53:41.758Z,6.57
2018-04-29T21:56:08.451Z,6.12
2018-04-29T21:58:35.174Z,7.40
2018-04-29T22:01:01.790Z,6.00
2018-04-29T22:03:28.465Z,6.80
2018-04-29T22:05:55.103Z,6.72
2018-04-29T22:08:21.740Z,5.60
2018-04-29T22:10:48.375Z,6.70
2018-04-29T22:13:15.009Z,6.20
2018-04-29T22:15:41.633Z,6.05
2018-04-29T22:18:08.264Z,6.18
2018-04-29T22:20:34.887Z,5.97
2018-04-29T22:23:01.529Z,7.00
2018-04-29T22:25:28.163Z,6.47
2018-04-29T22:27:54.802Z,6.47
2018-04-29T22:30:21.430Z,6.30
2018-04-29T22:32:48.071Z,5.72
2018-04-29T22:35:14.699Z,6.32
2018-04-29T22:37:41.346Z,6.30
2018-04-29T22:40:07.966Z,6.40
2018-04-29T22:42:34.626Z,5.70
2018-04-29T22:45:01.238Z,6.75
2018-04-29T22:47:27.879Z,5.75
2018-04-29T22:49:54.502Z,6.15
2018-04-29T22:52:21.137Z,5.37
2018-04-29T22:54:47.759Z,5.62
2018-04-29T22:57:14.386Z,7.87
2018-04-29T22:59:41.009Z,6.85
2018-04-29T23:02:07.638Z,6.72
2018-04-29T23:04:34.286Z,6.47
2018-04-29T23:07:00.935Z,5.90
2018-04-29T23:09:28.056Z,6.10
2018-04-29T23:11:54.699Z,6.03
2018-04-29T23:14:21.334Z,6.80
2018-04-29T23:16:47.970Z,6.45
2018-04-29T23:19:14.611Z,6.20
2018-04-29T23:21:41.222Z,6.70
2018-04-29T23:24:07.862Z,6.85
2018-04-29T23:26:34.478Z,7.60
2018-04-29T23:29:01.114Z,6.50
2018-04-29T23:31:27.727Z,6.10
2018-04-29T23:33:54.369Z,7.05
2018-04-29T23:36:20.997Z,5.87
2018-04-29T23:38:47.665Z,6.85
2018-04-29T23:41:14.303Z,5.85
2018-04-29T23:43:40.942Z,6.80
2018-04-29T23:46:07.593Z,6.68
2018-04-29T23:48:34.706Z,6.25
2018-04-29T23:51:01.321Z,6.55
2018-04-29T23:53:27.978Z,6.05
2018-04-29T23:55:54.590Z,7.25
2018-04-29T23:58:21.253Z,7.05
